sensor_id;sensor_type;location;lat;lon;timestamp;temperature;humidity
21092;DHT22;10704;42.678;23.288;2022-10-22T00:01:04;7.60;99.90
21092;DHT22;10704;42.678;23.288;2022-10-22T00:03:29;7.60;99.90
21092;DHT22;10704;42.678;23.288;2022-10-22T00:05:55;7.70;99.90
21092;DHT22;10704;42.678;23.288;2022-10-22T00:08:21;7.60;99.90
21092;DHT22;10704;42.678;23.288;2022-10-22T00:10:47;7.70;99.90
21092;DHT22;10704;42.678;23.288;2022-10-22T00:13:14;7.80;99.90
21092;DHT22;10704;42.678;23.288;2022-10-22T00:15:40;7.70;99.90
21092;DHT22;10704;42.678;23.288;2022-10-22T00:18:06;7.70;99.90
21092;DHT22;10704;42.678;23.288;2022-10-22T00:20:32;7.60;99.90
21092;DHT22;10704;42.678;23.288;2022-10-22T00:22:58;7.50;99.90
21092;DHT22;10704;42.678;23.288;2022-10-22T00:25:24;7.50;99.90
21092;DHT22;10704;42.678;23.288;2022-10-22T00:27:49;7.40;99.90
21092;DHT22;10704;42.678;23.288;2022-10-22T00:30:15;7.40;99.90
21092;DHT22;10704;42.678;23.288;2022-10-22T00:32:41;7.30;99.90
21092;DHT22;10704;42.678;23.288;2022-10-22T00:35:07;7.20;99.90
21092;DHT22;10704;42.678;23.288;2022-10-22T00:37:33;7.20;99.90
21092;DHT22;10704;42.678;23.288;2022-10-22T00:39:59;7.30;99.90
21092;DHT22;10704;42.678;23.288;2022-10-22T00:42:26;7.40;99.90
21092;DHT22;10704;42.678;23.288;2022-10-22T00:50:12;7.50;99.90
21092;DHT22;10704;42.678;23.288;2022-10-22T00:52:38;7.50;99.90
21092;DHT22;10704;42.678;23.288;2022-10-22T00:55:05;7.50;99.90
21092;DHT22;10704;42.678;23.288;2022-10-22T00:57:33;7.50;99.90
21092;DHT22;10704;42.678;23.288;2022-10-22T01:00:00;7.50;99.90
21092;DHT22;10704;42.678;23.288;2022-10-22T01:02:26;7.40;99.90
21092;DHT22;10704;42.678;23.288;2022-10-22T01:04:52;7.30;99.90
21092;DHT22;10704;42.678;23.288;2022-10-22T01:07:20;7.30;99.90
21092;DHT22;10704;42.678;23.288;2022-10-22T01:09:59;7.30;99.90
21092;DHT22;10704;42.678;23.288;2022-10-22T01:21:55;7.20;99.90
21092;DHT22;10704;42.678;23.288;2022-10-22T01:24:31;7.10;99.90
21092;DHT22;10704;42.678;23.288;2022-10-22T01:27:23;7.20;99.90
21092;DHT22;10704;42.678;23.288;2022-10-22T01:30:03;7.10;99.90
21092;DHT22;10704;42.678;23.288;2022-10-22T01:32:34;7.20;99.90
21092;DHT22;10704;42.678;23.288;2022-10-22T01:35:06;7.00;99.90
21092;DHT22;10704;42.678;23.288;2022-10-22T01:37:38;6.90;99.90
21092;DHT22;10704;42.678;23.288;2022-10-22T01:40:06;7.00;99.90
21092;DHT22;10704;42.678;23.288;2022-10-22T01:42:33;7.00;99.90
21092;DHT22;10704;42.678;23.288;2022-10-22T01:44:59;7.00;99.90
21092;DHT22;10704;42.678;23.288;2022-10-22T01:58:40;6.90;99.90
21092;DHT22;10704;42.678;23.288;2022-10-22T02:01:30;6.90;99.90
21092;DHT22;10704;42.678;23.288;2022-10-22T02:04:08;6.90;99.90
21092;DHT22;10704;42.678;23.288;2022-10-22T02:06:37;6.90;99.90
21092;DHT22;10704;42.678;23.288;2022-10-22T02:09:05;6.90;99.90
21092;DHT22;10704;42.678;23.288;2022-10-22T02:11:32;6.80;99.90
21092;DHT22;10704;42.678;23.288;2022-10-22T02:14:01;6.80;99.90
21092;DHT22;10704;42.678;23.288;2022-10-22T02:16:35;6.80;99.90
21092;DHT22;10704;42.678;23.288;2022-10-22T02:19:25;6.80;99.90
21092;DHT22;10704;42.678;23.288;2022-10-22T02:21:51;6.70;99.90
21092;DHT22;10704;42.678;23.288;2022-10-22T02:24:18;6.70;99.90
21092;DHT22;10704;42.678;23.288;2022-10-22T02:27:11;6.70;99.90
21092;DHT22;10704;42.678;23.288;2022-10-22T02:30:06;6.70;99.90
21092;DHT22;10704;42.678;23.288;2022-10-22T02:35:16;6.70;99.90
21092;DHT22;10704;42.678;23.288;2022-10-22T02:37:43;6.80;99.90
21092;DHT22;10704;42.678;23.288;2022-10-22T02:40:10;6.80;99.90
21092;DHT22;10704;42.678;23.288;2022-10-22T02:42:37;6.90;99.90
21092;DHT22;10704;42.678;23.288;2022-10-22T02:45:04;6.60;99.90
21092;DHT22;10704;42.678;23.288;2022-10-22T02:47:30;6.70;99.90
21092;DHT22;10704;42.678;23.288;2022-10-22T02:49:56;6.70;99.90
21092;DHT22;10704;42.678;23.288;2022-10-22T02:52:21;6.70;99.90
21092;DHT22;10704;42.678;23.288;2022-10-22T02:54:47;6.70;99.90
21092;DHT22;10704;42.678;23.288;2022-10-22T02:57:13;6.60;99.90
21092;DHT22;10704;42.678;23.288;2022-10-22T02:59:39;6.70;99.90
21092;DHT22;10704;42.678;23.288;2022-10-22T03:02:05;6.60;99.90
21092;DHT22;10704;42.678;23.288;2022-10-22T03:04:31;6.60;99.90
21092;DHT22;10704;42.678;23.288;2022-10-22T03:06:56;6.70;99.90
21092;DHT22;10704;42.678;23.288;2022-10-22T03:09:22;6.70;99.90
21092;DHT22;10704;42.678;23.288;2022-10-22T03:11:48;6.80;99.90
21092;DHT22;10704;42.678;23.288;2022-10-22T03:14:14;6.70;99.90
21092;DHT22;10704;42.678;23.288;2022-10-22T03:16:40;6.70;99.90
21092;DHT22;10704;42.678;23.288;2022-10-22T03:19:06;6.70;99.90
21092;DHT22;10704;42.678;23.288;2022-10-22T03:24:13;6.80;99.90
21092;DHT22;10704;42.678;23.288;2022-10-22T03:26:42;6.80;99.90
21092;DHT22;10704;42.678;23.288;2022-10-22T03:29:12;6.80;99.90
21092;DHT22;10704;42.678;23.288;2022-10-22T03:31:39;6.70;99.90
21092;DHT22;10704;42.678;23.288;2022-10-22T03:34:04;6.60;99.90
21092;DHT22;10704;42.678;23.288;2022-10-22T03:36:31;6.60;99.90
21092;DHT22;10704;42.678;23.288;2022-10-22T03:38:59;6.60;99.90
21092;DHT22;10704;42.678;23.288;2022-10-22T03:41:26;6.60;99.90
21092;DHT22;10704;42.678;23.288;2022-10-22T03:43:52;6.60;99.90
21092;DHT22;10704;42.678;23.288;2022-10-22T03:46:19;6.60;99.90
21092;DHT22;10704;42.678;23.288;2022-10-22T03:48:45;6.60;99.90
21092;DHT22;10704;42.678;23.288;2022-10-22T03:51:11;6.60;99.90
21092;DHT22;10704;42.678;23.288;2022-10-22T03:53:37;6.70;99.90
21092;DHT22;10704;42.678;23.288;2022-10-22T03:56:07;6.70;99.90
21092;DHT22;10704;42.678;23.288;2022-10-22T03:58:34;6.70;99.90
21092;DHT22;10704;42.678;23.288;2022-10-22T04:01:10;6.70;99.90
21092;DHT22;10704;42.678;23.288;2022-10-22T04:03:37;6.80;99.90
21092;DHT22;10704;42.678;23.288;2022-10-22T04:06:08;6.70;99.90
21092;DHT22;10704;42.678;23.288;2022-10-22T04:08:34;6.60;99.90
21092;DHT22;10704;42.678;23.288;2022-10-22T04:11:00;6.60;99.90
21092;DHT22;10704;42.678;23.288;2022-10-22T04:13:27;6.70;99.90
21092;DHT22;10704;42.678;23.288;2022-10-22T04:15:53;6.80;99.90
21092;DHT22;10704;42.678;23.288;2022-10-22T04:22:06;6.90;99.90
21092;DHT22;10704;42.678;23.288;2022-10-22T04:24:32;6.90;99.90
21092;DHT22;10704;42.678;23.288;2022-10-22T04:26:58;6.90;99.90
21092;DHT22;10704;42.678;23.288;2022-10-22T04:29:24;7.00;99.90
21092;DHT22;10704;42.678;23.288;2022-10-22T04:31:50;7.10;99.90
21092;DHT22;10704;42.678;23.288;2022-10-22T04:34:16;7.10;99.90
21092;DHT22;10704;42.678;23.288;2022-10-22T04:36:42;7.20;99.90
21092;DHT22;10704;42.678;23.288;2022-10-22T04:39:08;7.20;99.90
21092;DHT22;10704;42.678;23.288;2022-10-22T04:41:35;7.40;99.90
21092;DHT22;10704;42.678;23.288;2022-10-22T04:44:02;7.70;99.90
21092;DHT22;10704;42.678;23.288;2022-10-22T04:46:31;7.90;99.90
21092;DHT22;10704;42.678;23.288;2022-10-22T04:48:57;7.90;99.90
21092;DHT22;10704;42.678;23.288;2022-10-22T04:51:25;7.90;99.90
21092;DHT22;10704;42.678;23.288;2022-10-22T04:53:52;8.00;99.90
21092;DHT22;10704;42.678;23.288;2022-10-22T04:56:23;8.00;99.90
21092;DHT22;10704;42.678;23.288;2022-10-22T04:58:55;7.70;99.90
21092;DHT22;10704;42.678;23.288;2022-10-22T05:01:38;7.50;99.90
21092;DHT22;10704;42.678;23.288;2022-10-22T05:04:05;7.40;99.90
21092;DHT22;10704;42.678;23.288;2022-10-22T05:06:33;7.30;99.90
21092;DHT22;10704;42.678;23.288;2022-10-22T05:09:03;7.20;99.90
21092;DHT22;10704;42.678;23.288;2022-10-22T05:11:35;7.20;99.90
21092;DHT22;10704;42.678;23.288;2022-10-22T05:14:03;7.20;99.90
21092;DHT22;10704;42.678;23.288;2022-10-22T05:16:30;7.30;99.90
21092;DHT22;10704;42.678;23.288;2022-10-22T05:18:58;7.40;99.90
21092;DHT22;10704;42.678;23.288;2022-10-22T05:21:25;7.50;99.90
21092;DHT22;10704;42.678;23.288;2022-10-22T05:23:54;7.50;99.90
21092;DHT22;10704;42.678;23.288;2022-10-22T05:26:21;7.50;99.90
21092;DHT22;10704;42.678;23.288;2022-10-22T05:28:48;7.50;99.90
21092;DHT22;10704;42.678;23.288;2022-10-22T05:31:15;7.50;99.90
21092;DHT22;10704;42.678;23.288;2022-10-22T05:33:42;7.30;99.90
21092;DHT22;10704;42.678;23.288;2022-10-22T05:36:13;7.30;99.90
21092;DHT22;10704;42.678;23.288;2022-10-22T05:38:40;7.20;99.90
21092;DHT22;10704;42.678;23.288;2022-10-22T05:41:08;7.20;99.90
21092;DHT22;10704;42.678;23.288;2022-10-22T05:43:34;7.20;99.90
21092;DHT22;10704;42.678;23.288;2022-10-22T05:46:07;7.10;99.90
21092;DHT22;10704;42.678;23.288;2022-10-22T05:48:34;7.20;99.90
21092;DHT22;10704;42.678;23.288;2022-10-22T05:51:05;7.10;99.90
21092;DHT22;10704;42.678;23.288;2022-10-22T05:53:32;7.20;99.90
21092;DHT22;10704;42.678;23.288;2022-10-22T05:56:03;7.30;99.90
21092;DHT22;10704;42.678;23.288;2022-10-22T05:58:29;7.40;99.90
21092;DHT22;10704;42.678;23.288;2022-10-22T06:01:01;7.50;99.90
21092;DHT22;10704;42.678;23.288;2022-10-22T06:03:27;7.50;99.90
21092;DHT22;10704;42.678;23.288;2022-10-22T06:05:54;7.50;99.90
21092;DHT22;10704;42.678;23.288;2022-10-22T06:08:19;7.50;99.90
21092;DHT22;10704;42.678;23.288;2022-10-22T06:10:45;7.60;99.90
21092;DHT22;10704;42.678;23.288;2022-10-22T06:13:11;7.70;99.90
21092;DHT22;10704;42.678;23.288;2022-10-22T06:15:37;7.80;99.90
21092;DHT22;10704;42.678;23.288;2022-10-22T06:18:03;8.00;99.90
21092;DHT22;10704;42.678;23.288;2022-10-22T06:20:29;8.40;99.90
21092;DHT22;10704;42.678;23.288;2022-10-22T06:22:54;8.50;99.90
21092;DHT22;10704;42.678;23.288;2022-10-22T06:25:20;8.50;99.90
21092;DHT22;10704;42.678;23.288;2022-10-22T06:27:49;8.60;99.90
21092;DHT22;10704;42.678;23.288;2022-10-22T06:30:18;8.40;99.90
21092;DHT22;10704;42.678;23.288;2022-10-22T06:32:44;8.10;99.90
21092;DHT22;10704;42.678;23.288;2022-10-22T06:35:10;8.20;99.90
21092;DHT22;10704;42.678;23.288;2022-10-22T06:37:36;8.50;99.90
21092;DHT22;10704;42.678;23.288;2022-10-22T06:40:02;8.90;99.90
21092;DHT22;10704;42.678;23.288;2022-10-22T06:42:28;8.90;99.90
21092;DHT22;10704;42.678;23.288;2022-10-22T06:44:54;9.00;99.90
21092;DHT22;10704;42.678;23.288;2022-10-22T06:47:19;9.10;99.90
21092;DHT22;10704;42.678;23.288;2022-10-22T06:53:33;9.50;99.90
21092;DHT22;10704;42.678;23.288;2022-10-22T06:56:13;9.70;99.90
21092;DHT22;10704;42.678;23.288;2022-10-22T06:58:40;9.80;99.90
21092;DHT22;10704;42.678;23.288;2022-10-22T07:01:11;10.20;99.90
21092;DHT22;10704;42.678;23.288;2022-10-22T07:03:39;10.50;99.90
21092;DHT22;10704;42.678;23.288;2022-10-22T07:06:08;10.90;99.90
21092;DHT22;10704;42.678;23.288;2022-10-22T07:08:34;11.00;99.90
21092;DHT22;10704;42.678;23.288;2022-10-22T07:11:09;10.70;99.90
21092;DHT22;10704;42.678;23.288;2022-10-22T07:13:36;10.50;99.90
21092;DHT22;10704;42.678;23.288;2022-10-22T07:16:02;10.70;99.90
21092;DHT22;10704;42.678;23.288;2022-10-22T07:18:29;11.00;99.90
21092;DHT22;10704;42.678;23.288;2022-10-22T07:20:55;11.30;99.90
21092;DHT22;10704;42.678;23.288;2022-10-22T07:23:21;11.60;99.90
21092;DHT22;10704;42.678;23.288;2022-10-22T07:25:47;11.70;99.90
21092;DHT22;10704;42.678;23.288;2022-10-22T07:28:13;12.00;99.90
21092;DHT22;10704;42.678;23.288;2022-10-22T07:30:39;12.20;99.90
21092;DHT22;10704;42.678;23.288;2022-10-22T07:33:05;12.60;99.90
21092;DHT22;10704;42.678;23.288;2022-10-22T07:35:32;12.90;99.90
21092;DHT22;10704;42.678;23.288;2022-10-22T07:37:59;13.30;99.90
21092;DHT22;10704;42.678;23.288;2022-10-22T07:40:25;13.30;99.90
21092;DHT22;10704;42.678;23.288;2022-10-22T07:42:51;13.70;99.90
21092;DHT22;10704;42.678;23.288;2022-10-22T07:45:17;13.70;99.90
21092;DHT22;10704;42.678;23.288;2022-10-22T07:47:43;14.00;99.90
21092;DHT22;10704;42.678;23.288;2022-10-22T07:50:09;14.60;99.90
21092;DHT22;10704;42.678;23.288;2022-10-22T07:52:35;14.90;99.90
21092;DHT22;10704;42.678;23.288;2022-10-22T07:55:00;15.20;99.90
21092;DHT22;10704;42.678;23.288;2022-10-22T07:57:26;15.80;99.90
21092;DHT22;10704;42.678;23.288;2022-10-22T07:59:52;16.00;99.90
21092;DHT22;10704;42.678;23.288;2022-10-22T08:02:18;16.20;99.90
21092;DHT22;10704;42.678;23.288;2022-10-22T08:04:44;16.20;99.90
21092;DHT22;10704;42.678;23.288;2022-10-22T08:07:10;16.30;99.90
21092;DHT22;10704;42.678;23.288;2022-10-22T08:09:36;16.60;99.80
21092;DHT22;10704;42.678;23.288;2022-10-22T08:12:02;17.20;97.90
21092;DHT22;10704;42.678;23.288;2022-10-22T08:14:28;17.70;95.60
21092;DHT22;10704;42.678;23.288;2022-10-22T08:16:53;18.30;93.60
21092;DHT22;10704;42.678;23.288;2022-10-22T08:19:19;18.60;91.50
21092;DHT22;10704;42.678;23.288;2022-10-22T08:21:46;18.90;91.00
21092;DHT22;10704;42.678;23.288;2022-10-22T08:24:13;18.60;90.70
21092;DHT22;10704;42.678;23.288;2022-10-22T08:26:39;19.30;88.50
21092;DHT22;10704;42.678;23.288;2022-10-22T08:29:06;20.00;84.50
21092;DHT22;10704;42.678;23.288;2022-10-22T08:31:33;19.40;84.60
21092;DHT22;10704;42.678;23.288;2022-10-22T08:33:59;19.60;84.70
21092;DHT22;10704;42.678;23.288;2022-10-22T08:36:25;20.50;81.90
21092;DHT22;10704;42.678;23.288;2022-10-22T08:38:51;20.90;78.80
21092;DHT22;10704;42.678;23.288;2022-10-22T08:41:21;20.90;77.60
21092;DHT22;10704;42.678;23.288;2022-10-22T08:49:23;21.20;74.30
21092;DHT22;10704;42.678;23.288;2022-10-22T08:51:49;20.70;75.00
21092;DHT22;10704;42.678;23.288;2022-10-22T09:00:24;21.30;72.70
21092;DHT22;10704;42.678;23.288;2022-10-22T09:08:36;20.90;73.30
21092;DHT22;10704;42.678;23.288;2022-10-22T09:11:19;21.10;72.30
21092;DHT22;10704;42.678;23.288;2022-10-22T09:13:47;20.70;73.90
21092;DHT22;10704;42.678;23.288;2022-10-22T09:16:18;21.30;73.10
21092;DHT22;10704;42.678;23.288;2022-10-22T09:26:32;23.00;66.20
21092;DHT22;10704;42.678;23.288;2022-10-22T09:29:00;22.70;66.50
21092;DHT22;10704;42.678;23.288;2022-10-22T09:31:29;22.20;67.70
21092;DHT22;10704;42.678;23.288;2022-10-22T09:33:55;22.80;67.50
21092;DHT22;10704;42.678;23.288;2022-10-22T09:36:24;23.20;65.90
21092;DHT22;10704;42.678;23.288;2022-10-22T09:38:51;24.10;63.70
21092;DHT22;10704;42.678;23.288;2022-10-22T09:41:19;24.10;64.20
21092;DHT22;10704;42.678;23.288;2022-10-22T09:43:48;24.30;62.50
21092;DHT22;10704;42.678;23.288;2022-10-22T09:46:19;24.10;62.60
21092;DHT22;10704;42.678;23.288;2022-10-22T09:59:33;24.60;61.10
21092;DHT22;10704;42.678;23.288;2022-10-22T10:02:18;24.50;61.00
21092;DHT22;10704;42.678;23.288;2022-10-22T10:04:52;24.60;60.50
21092;DHT22;10704;42.678;23.288;2022-10-22T10:07:22;24.70;60.20
21092;DHT22;10704;42.678;23.288;2022-10-22T10:09:48;25.20;59.20
21092;DHT22;10704;42.678;23.288;2022-10-22T10:19:54;24.90;59.60
21092;DHT22;10704;42.678;23.288;2022-10-22T10:33:58;25.40;57.60
21092;DHT22;10704;42.678;23.288;2022-10-22T10:40:03;26.10;57.20
21092;DHT22;10704;42.678;23.288;2022-10-22T10:42:25;26.40;56.50
21092;DHT22;10704;42.678;23.288;2022-10-22T10:44:58;27.50;54.50
21092;DHT22;10704;42.678;23.288;2022-10-22T10:50:38;27.40;54.10
21092;DHT22;10704;42.678;23.288;2022-10-22T11:06:58;28.50;52.10
21092;DHT22;10704;42.678;23.288;2022-10-22T11:09:29;28.50;51.60
21092;DHT22;10704;42.678;23.288;2022-10-22T11:12:03;28.40;52.20
21092;DHT22;10704;42.678;23.288;2022-10-22T11:17:48;28.00;51.90
21092;DHT22;10704;42.678;23.288;2022-10-22T11:20:24;27.80;52.20
21092;DHT22;10704;42.678;23.288;2022-10-22T11:23:08;28.10;51.70
21092;DHT22;10704;42.678;23.288;2022-10-22T11:25:45;26.70;52.90
21092;DHT22;10704;42.678;23.288;2022-10-22T11:28:28;25.20;55.50
21092;DHT22;10704;42.678;23.288;2022-10-22T11:31:02;25.00;56.80
21092;DHT22;10704;42.678;23.288;2022-10-22T11:34:19;26.00;55.60
21092;DHT22;10704;42.678;23.288;2022-10-22T11:36:23;26.50;54.40
21092;DHT22;10704;42.678;23.288;2022-10-22T11:38:50;26.90;53.60
21092;DHT22;10704;42.678;23.288;2022-10-22T11:41:18;27.00;52.90
21092;DHT22;10704;42.678;23.288;2022-10-22T11:51:40;26.30;54.00
21092;DHT22;10704;42.678;23.288;2022-10-22T11:54:37;25.30;55.00
21092;DHT22;10704;42.678;23.288;2022-10-22T11:57:17;25.60;56.00
21092;DHT22;10704;42.678;23.288;2022-10-22T11:59:53;26.30;54.60
21092;DHT22;10704;42.678;23.288;2022-10-22T12:04:54;26.50;54.20
21092;DHT22;10704;42.678;23.288;2022-10-22T12:07:32;26.80;53.40
21092;DHT22;10704;42.678;23.288;2022-10-22T12:09:58;27.00;53.00
21092;DHT22;10704;42.678;23.288;2022-10-22T12:12:24;27.10;52.70
21092;DHT22;10704;42.678;23.288;2022-10-22T12:14:53;27.00;52.70
21092;DHT22;10704;42.678;23.288;2022-10-22T12:17:20;26.50;53.40
21092;DHT22;10704;42.678;23.288;2022-10-22T12:19:59;26.60;53.40
21092;DHT22;10704;42.678;23.288;2022-10-22T12:22:29;26.90;53.30
21092;DHT22;10704;42.678;23.288;2022-10-22T12:24:59;27.30;52.90
21092;DHT22;10704;42.678;23.288;2022-10-22T12:27:40;26.60;53.10
21092;DHT22;10704;42.678;23.288;2022-10-22T12:30:21;26.60;53.60
21092;DHT22;10704;42.678;23.288;2022-10-22T12:32:51;26.50;53.70
21092;DHT22;10704;42.678;23.288;2022-10-22T12:35:21;26.90;52.70
21092;DHT22;10704;42.678;23.288;2022-10-22T12:37:51;26.80;52.70
21092;DHT22;10704;42.678;23.288;2022-10-22T12:40:27;26.00;54.10
21092;DHT22;10704;42.678;23.288;2022-10-22T12:43:03;25.80;54.60
21092;DHT22;10704;42.678;23.288;2022-10-22T12:45:33;26.20;54.00
21092;DHT22;10704;42.678;23.288;2022-10-22T12:48:05;25.90;54.40
21092;DHT22;10704;42.678;23.288;2022-10-22T12:50:35;26.10;53.80
21092;DHT22;10704;42.678;23.288;2022-10-22T12:53:12;26.00;53.80
21092;DHT22;10704;42.678;23.288;2022-10-22T12:55:39;26.00;53.90
21092;DHT22;10704;42.678;23.288;2022-10-22T12:58:06;25.60;53.90
21092;DHT22;10704;42.678;23.288;2022-10-22T13:00:34;25.30;54.90
21092;DHT22;10704;42.678;23.288;2022-10-22T13:03:04;24.60;56.00
21092;DHT22;10704;42.678;23.288;2022-10-22T13:05:31;24.30;57.10
21092;DHT22;10704;42.678;23.288;2022-10-22T13:10:38;24.40;57.10
21092;DHT22;10704;42.678;23.288;2022-10-22T13:13:05;24.20;56.80
21092;DHT22;10704;42.678;23.288;2022-10-22T13:20:27;24.60;56.50
21092;DHT22;10704;42.678;23.288;2022-10-22T13:22:56;24.30;56.40
21092;DHT22;10704;42.678;23.288;2022-10-22T13:25:32;24.00;58.00
21092;DHT22;10704;42.678;23.288;2022-10-22T13:28:16;24.50;56.80
21092;DHT22;10704;42.678;23.288;2022-10-22T13:31:00;24.60;56.50
21092;DHT22;10704;42.678;23.288;2022-10-22T13:33:35;24.60;56.20
21092;DHT22;10704;42.678;23.288;2022-10-22T13:36:03;24.40;56.40
21092;DHT22;10704;42.678;23.288;2022-10-22T13:38:29;24.20;57.10
21092;DHT22;10704;42.678;23.288;2022-10-22T13:40:56;24.20;56.80
21092;DHT22;10704;42.678;23.288;2022-10-22T13:43:22;24.30;57.20
21092;DHT22;10704;42.678;23.288;2022-10-22T13:45:56;24.50;56.60
21092;DHT22;10704;42.678;23.288;2022-10-22T13:48:23;24.30;57.00
21092;DHT22;10704;42.678;23.288;2022-10-22T13:50:50;24.10;57.20
21092;DHT22;10704;42.678;23.288;2022-10-22T13:53:21;23.50;58.50
21092;DHT22;10704;42.678;23.288;2022-10-22T13:55:47;23.60;58.70
21092;DHT22;10704;42.678;23.288;2022-10-22T13:58:20;23.40;58.60
21092;DHT22;10704;42.678;23.288;2022-10-22T14:00:54;23.20;59.30
21092;DHT22;10704;42.678;23.288;2022-10-22T14:03:27;23.20;59.50
21092;DHT22;10704;42.678;23.288;2022-10-22T14:05:54;23.40;59.20
21092;DHT22;10704;42.678;23.288;2022-10-22T14:08:22;23.50;59.10
21092;DHT22;10704;42.678;23.288;2022-10-22T14:10:50;23.70;58.90
21092;DHT22;10704;42.678;23.288;2022-10-22T14:13:17;24.30;57.70
21092;DHT22;10704;42.678;23.288;2022-10-22T14:15:45;24.30;57.20
21092;DHT22;10704;42.678;23.288;2022-10-22T14:18:15;24.30;57.80
21092;DHT22;10704;42.678;23.288;2022-10-22T14:20:51;24.30;57.40
21092;DHT22;10704;42.678;23.288;2022-10-22T14:23:19;24.40;57.20
21092;DHT22;10704;42.678;23.288;2022-10-22T14:25:46;24.10;57.40
21092;DHT22;10704;42.678;23.288;2022-10-22T14:28:13;24.10;57.30
21092;DHT22;10704;42.678;23.288;2022-10-22T14:30:40;23.80;57.90
21092;DHT22;10704;42.678;23.288;2022-10-22T14:33:14;23.20;58.90
21092;DHT22;10704;42.678;23.288;2022-10-22T14:35:40;23.10;59.40
21092;DHT22;10704;42.678;23.288;2022-10-22T14:38:06;23.60;59.20
21092;DHT22;10704;42.678;23.288;2022-10-22T14:40:32;23.70;58.60
21092;DHT22;10704;42.678;23.288;2022-10-22T14:42:58;23.30;59.10
21092;DHT22;10704;42.678;23.288;2022-10-22T14:45:25;23.10;59.80
21092;DHT22;10704;42.678;23.288;2022-10-22T14:47:52;23.10;59.90
21092;DHT22;10704;42.678;23.288;2022-10-22T14:50:20;22.80;60.20
21092;DHT22;10704;42.678;23.288;2022-10-22T14:52:47;22.50;61.00
21092;DHT22;10704;42.678;23.288;2022-10-22T14:55:15;22.30;61.80
21092;DHT22;10704;42.678;23.288;2022-10-22T14:57:41;22.10;62.60
21092;DHT22;10704;42.678;23.288;2022-10-22T15:00:13;21.80;64.10
21092;DHT22;10704;42.678;23.288;2022-10-22T15:02:39;21.40;64.60
21092;DHT22;10704;42.678;23.288;2022-10-22T15:05:06;21.20;65.50
21092;DHT22;10704;42.678;23.288;2022-10-22T15:07:32;21.00;66.50
21092;DHT22;10704;42.678;23.288;2022-10-22T15:09:58;20.70;67.80
21092;DHT22;10704;42.678;23.288;2022-10-22T15:12:24;20.50;68.80
21092;DHT22;10704;42.678;23.288;2022-10-22T15:14:50;20.10;71.40
21092;DHT22;10704;42.678;23.288;2022-10-22T15:17:17;19.70;73.70
21092;DHT22;10704;42.678;23.288;2022-10-22T15:19:43;19.50;75.10
21092;DHT22;10704;42.678;23.288;2022-10-22T15:22:10;19.30;75.90
21092;DHT22;10704;42.678;23.288;2022-10-22T15:24:36;19.20;76.40
21092;DHT22;10704;42.678;23.288;2022-10-22T15:27:02;19.20;77.00
21092;DHT22;10704;42.678;23.288;2022-10-22T15:29:29;19.00;77.80
21092;DHT22;10704;42.678;23.288;2022-10-22T15:31:56;18.90;79.10
21092;DHT22;10704;42.678;23.288;2022-10-22T15:34:30;18.80;80.00
21092;DHT22;10704;42.678;23.288;2022-10-22T15:40:45;18.60;81.50
21092;DHT22;10704;42.678;23.288;2022-10-22T15:47:11;18.30;84.30
21092;DHT22;10704;42.678;23.288;2022-10-22T15:49:38;18.20;85.60
21092;DHT22;10704;42.678;23.288;2022-10-22T15:52:05;18.00;87.60
21092;DHT22;10704;42.678;23.288;2022-10-22T15:54:31;17.70;89.70
21092;DHT22;10704;42.678;23.288;2022-10-22T15:56:59;17.50;90.70
21092;DHT22;10704;42.678;23.288;2022-10-22T15:59:26;17.50;91.80
21092;DHT22;10704;42.678;23.288;2022-10-22T16:01:52;17.30;92.70
21092;DHT22;10704;42.678;23.288;2022-10-22T16:04:18;17.20;94.00
21092;DHT22;10704;42.678;23.288;2022-10-22T16:06:46;17.00;96.80
21092;DHT22;10704;42.678;23.288;2022-10-22T16:09:15;16.80;99.90
21092;DHT22;10704;42.678;23.288;2022-10-22T16:15:28;16.40;99.90
21092;DHT22;10704;42.678;23.288;2022-10-22T16:17:55;16.30;99.90
21092;DHT22;10704;42.678;23.288;2022-10-22T16:20:21;16.30;99.90
21092;DHT22;10704;42.678;23.288;2022-10-22T16:22:49;16.30;99.90
21092;DHT22;10704;42.678;23.288;2022-10-22T16:25:15;16.20;99.90
21092;DHT22;10704;42.678;23.288;2022-10-22T16:27:40;16.20;99.90
21092;DHT22;10704;42.678;23.288;2022-10-22T16:30:07;16.10;99.90
21092;DHT22;10704;42.678;23.288;2022-10-22T16:32:32;16.10;99.90
21092;DHT22;10704;42.678;23.288;2022-10-22T16:34:58;16.00;99.90
21092;DHT22;10704;42.678;23.288;2022-10-22T16:37:25;16.00;99.90
21092;DHT22;10704;42.678;23.288;2022-10-22T16:39:50;15.90;99.90
21092;DHT22;10704;42.678;23.288;2022-10-22T16:42:16;15.80;99.90
21092;DHT22;10704;42.678;23.288;2022-10-22T16:44:42;15.80;99.90
21092;DHT22;10704;42.678;23.288;2022-10-22T16:47:08;15.80;99.90
21092;DHT22;10704;42.678;23.288;2022-10-22T16:49:34;15.80;99.90
21092;DHT22;10704;42.678;23.288;2022-10-22T16:51:59;15.70;99.90
21092;DHT22;10704;42.678;23.288;2022-10-22T16:54:25;15.70;99.90
21092;DHT22;10704;42.678;23.288;2022-10-22T16:56:51;15.70;99.90
21092;DHT22;10704;42.678;23.288;2022-10-22T16:59:17;15.70;99.90
21092;DHT22;10704;42.678;23.288;2022-10-22T17:01:43;15.60;99.90
21092;DHT22;10704;42.678;23.288;2022-10-22T17:04:09;15.60;99.90
21092;DHT22;10704;42.678;23.288;2022-10-22T17:06:35;15.60;99.90
21092;DHT22;10704;42.678;23.288;2022-10-22T17:09:01;15.70;99.90
21092;DHT22;10704;42.678;23.288;2022-10-22T17:11:27;15.70;99.90
21092;DHT22;10704;42.678;23.288;2022-10-22T17:13:59;15.80;99.90
21092;DHT22;10704;42.678;23.288;2022-10-22T17:16:26;15.90;99.90
21092;DHT22;10704;42.678;23.288;2022-10-22T17:18:53;15.90;99.90
21092;DHT22;10704;42.678;23.288;2022-10-22T17:21:20;15.80;99.90
21092;DHT22;10704;42.678;23.288;2022-10-22T17:23:46;15.70;99.90
21092;DHT22;10704;42.678;23.288;2022-10-22T17:26:16;15.70;99.90
21092;DHT22;10704;42.678;23.288;2022-10-22T17:28:42;15.50;99.90
21092;DHT22;10704;42.678;23.288;2022-10-22T17:31:14;15.40;99.90
21092;DHT22;10704;42.678;23.288;2022-10-22T17:33:42;15.20;99.90
21092;DHT22;10704;42.678;23.288;2022-10-22T17:36:08;15.10;99.90
21092;DHT22;10704;42.678;23.288;2022-10-22T17:38:37;15.10;99.90
21092;DHT22;10704;42.678;23.288;2022-10-22T17:41:06;15.00;99.90
21092;DHT22;10704;42.678;23.288;2022-10-22T17:47:20;14.90;99.90
21092;DHT22;10704;42.678;23.288;2022-10-22T17:49:46;14.90;99.90
21092;DHT22;10704;42.678;23.288;2022-10-22T17:52:13;14.90;99.90
21092;DHT22;10704;42.678;23.288;2022-10-22T17:54:39;14.80;99.90
21092;DHT22;10704;42.678;23.288;2022-10-22T17:57:05;14.70;99.90
21092;DHT22;10704;42.678;23.288;2022-10-22T17:59:31;14.70;99.90
21092;DHT22;10704;42.678;23.288;2022-10-22T18:01:57;14.70;99.90